createdAt,value
2022-11-10T00:01:21.787Z,95757.38
2022-11-10T00:03:50.530Z,95744.19
2022-11-10T00:06:20.804Z,95724.75
2022-11-10T00:08:49.301Z,95771.91
2022-11-10T00:11:17.972Z,95782.13
2022-11-10T00:14:07.575Z,95730.97
2022-11-10T00:16:53.208Z,95778.38
2022-11-10T00:19:21.735Z,95720.72
2022-11-10T00:21:51.437Z,95773.53
2022-11-10T00:24:19.918Z,95781.88
2022-11-10T00:26:49.038Z,95783.47
2022-11-10T00:29:17.442Z,95778.91
2022-11-10T00:31:45.946Z,95680.25
2022-11-10T00:34:16.124Z,95770.81
2022-11-10T00:36:45.807Z,95757.34
2022-11-10T00:39:16.087Z,95776.19
2022-11-10T00:41:44.615Z,95792.06
2022-11-10T00:44:13.051Z,95795.56
2022-11-10T00:46:41.435Z,95800.41
2022-11-10T00:49:10.474Z,95802.56
2022-11-10T00:51:38.979Z,95787.94
2022-11-10T00:54:09.182Z,95813.06
2022-11-10T00:56:39.039Z,95785.28
2022-11-10T00:59:07.676Z,95785.19
2022-11-10T01:01:36.290Z,95815.44
2022-11-10T01:04:04.956Z,95820.22
2022-11-10T01:06:33.949Z,95828.56
2022-11-10T01:09:02.474Z,95826.66
2022-11-10T01:11:31.192Z,95826.63
2022-11-10T01:14:01.689Z,95809.84
2022-11-10T01:16:33.965Z,95808.56
2022-11-10T01:19:04.607Z,95819.31
2022-11-10T01:21:33.041Z,95831.97
2022-11-10T01:24:01.686Z,95835.16
2022-11-10T01:26:30.112Z,95839.44
2022-11-10T01:29:00.970Z,95798.44
2022-11-10T01:31:29.382Z,95819.44
2022-11-10T01:34:00.053Z,95853.66
2022-11-10T01:36:28.690Z,95849.84
2022-11-10T01:38:57.347Z,95858.16
2022-11-10T01:41:25.767Z,95757.81
2022-11-10T01:43:54.150Z,95863.25
2022-11-10T01:46:23.941Z,95862.97
2022-11-10T01:48:56.908Z,95863.50
2022-11-10T01:51:29.606Z,95866.19
2022-11-10T01:54:00.853Z,95846.59
2022-11-10T01:56:32.073Z,95855.16
2022-11-10T01:59:03.345Z,95849.78
2022-11-10T02:01:33.167Z,95868.09
2022-11-10T02:04:05.443Z,95871.06
2022-11-10T02:06:39.494Z,95878.00
2022-11-10T02:09:08.289Z,95860.50
2022-11-10T02:11:39.136Z,95880.44
2022-11-10T02:14:07.914Z,95881.50
2022-11-10T02:16:38.195Z,95899.78
2022-11-10T02:19:18.332Z,95878.53
2022-11-10T02:21:48.259Z,95874.09
2022-11-10T02:24:17.042Z,95869.31
2022-11-10T02:26:50.067Z,95879.56
2022-11-10T02:29:18.579Z,95886.53
2022-11-10T02:31:47.171Z,95884.91
2022-11-10T02:34:15.646Z,95897.81
2022-11-10T02:36:44.058Z,95889.47
2022-11-10T02:39:13.858Z,95889.09
2022-11-10T02:41:42.193Z,95894.03
2022-11-10T02:44:10.647Z,95881.59
2022-11-10T02:46:39.049Z,95897.81
2022-11-10T02:49:08.254Z,95902.34
2022-11-10T02:51:36.706Z,95913.84
2022-11-10T02:54:06.312Z,95838.28
2022-11-10T02:56:36.636Z,95916.59
2022-11-10T02:59:05.241Z,95914.16
2022-11-10T03:01:33.632Z,95917.66
2022-11-10T03:04:02.088Z,95917.16
2022-11-10T03:06:30.567Z,95925.22
2022-11-10T03:08:59.359Z,95927.94
2022-11-10T03:11:31.974Z,95938.97
2022-11-10T03:14:02.899Z,95927.16
2022-11-10T03:16:31.571Z,95927.63
2022-11-10T03:19:00.248Z,95934.94
2022-11-10T03:21:28.642Z,95942.72
2022-11-10T03:23:57.026Z,95952.38
2022-11-10T03:26:25.466Z,95876.25
2022-11-10T03:28:53.886Z,95950.44
2022-11-10T03:31:23.708Z,95956.09
2022-11-10T03:33:52.037Z,95960.66
2022-11-10T03:36:20.502Z,95965.47
2022-11-10T03:38:48.856Z,95963.84
2022-11-10T03:41:20.136Z,95963.31
2022-11-10T03:43:49.101Z,95956.25
2022-11-10T03:46:17.931Z,95944.81
2022-11-10T03:48:53.292Z,95959.84
2022-11-10T03:51:23.048Z,95952.75
2022-11-10T03:53:51.634Z,95984.03
2022-11-10T03:56:20.373Z,95970.56
2022-11-10T03:58:48.770Z,95977.25
2022-11-10T04:01:17.328Z,95977.25
2022-11-10T04:03:51.289Z,95934.41
2022-11-10T04:06:37.855Z,95935.22
2022-11-10T04:09:07.275Z,95977.13
2022-11-10T04:11:53.362Z,95985.44
2022-11-10T04:14:38.952Z,95992.38
2022-11-10T04:17:07.346Z,95977.38
2022-11-10T04:19:37.186Z,96006.31
2022-11-10T04:22:05.930Z,96012.69
2022-11-10T04:24:35.086Z,95982.91
2022-11-10T04:27:03.414Z,95939.88
2022-11-10T04:29:31.842Z,96023.53
2022-11-10T04:32:00.159Z,95985.56
2022-11-10T04:34:28.532Z,96020.91
2022-11-10T04:36:58.281Z,96024.72
2022-11-10T04:39:26.673Z,96016.66
2022-11-10T04:42:01.333Z,96022.09
2022-11-10T04:44:30.933Z,96024.28
2022-11-10T04:46:59.320Z,96031.28
2022-11-10T04:49:27.967Z,96034.56
2022-11-10T04:51:58.647Z,96002.97
2022-11-10T04:54:27.174Z,96038.69
2022-11-10T04:56:55.533Z,95828.28
2022-11-10T04:59:23.991Z,96049.72
2022-11-10T05:01:52.391Z,96056.72
2022-11-10T05:04:20.992Z,96037.25
2022-11-10T05:06:49.744Z,96048.13
2022-11-10T05:09:19.702Z,96053.00
2022-11-10T05:11:48.402Z,96056.47
2022-11-10T05:14:17.091Z,96074.06
2022-11-10T05:16:45.407Z,96072.53
2022-11-10T05:19:13.995Z,96027.69
2022-11-10T05:21:42.366Z,96059.94
2022-11-10T05:24:11.444Z,96066.69
2022-11-10T05:26:41.250Z,96071.03
2022-11-10T05:29:09.655Z,96085.03
2022-11-10T05:31:38.096Z,96088.00
2022-11-10T05:34:06.562Z,96090.41
2022-11-10T05:36:34.957Z,96093.22
2022-11-10T05:39:03.307Z,96096.09
2022-11-10T05:41:32.019Z,96074.13
2022-11-10T05:44:01.815Z,96068.25
2022-11-10T05:46:31.705Z,96108.81
2022-11-10T05:48:59.991Z,96117.97
2022-11-10T05:51:28.358Z,96101.97
2022-11-10T05:53:56.782Z,96123.25
2022-11-10T05:56:25.441Z,96122.38
2022-11-10T05:58:53.741Z,96128.25
2022-11-10T06:01:23.543Z,96125.53
2022-11-10T06:03:52.202Z,96129.31
2022-11-10T06:06:20.868Z,96129.31
2022-11-10T06:08:49.420Z,96121.44
2022-11-10T06:11:17.765Z,96131.69
2022-11-10T06:13:46.186Z,96122.69
2022-11-10T06:16:14.621Z,96122.00
2022-11-10T06:18:44.412Z,96152.84
2022-11-10T06:21:13.008Z,96126.91
2022-11-10T06:23:41.417Z,96151.97
2022-11-10T06:26:09.823Z,96167.69
2022-11-10T06:28:38.178Z,96113.47
2022-11-10T06:31:06.852Z,96176.22
2022-11-10T06:33:35.667Z,96193.53
2022-11-10T06:36:05.655Z,96191.25
2022-11-10T06:38:34.022Z,96191.25
2022-11-10T06:41:02.394Z,96146.09
2022-11-10T06:43:30.741Z,96188.97
2022-11-10T06:45:59.607Z,96191.84
2022-11-10T06:48:27.994Z,96192.41
2022-11-10T06:50:56.377Z,96178.66
2022-11-10T06:53:27.269Z,96204.78
2022-11-10T06:55:56.130Z,96167.00
2022-11-10T06:58:25.326Z,96203.34
2022-11-10T07:00:53.729Z,96210.94
2022-11-10T07:03:22.502Z,96194.06
2022-11-10T07:05:51.124Z,96227.66
2022-11-10T07:08:19.643Z,96169.69
2022-11-10T07:10:54.585Z,96195.22
2022-11-10T07:13:23.911Z,96236.94
2022-11-10T07:15:53.275Z,96230.16
2022-11-10T07:18:21.559Z,96248.34
2022-11-10T07:20:49.948Z,96238.41
2022-11-10T07:23:18.978Z,96233.59
2022-11-10T07:25:49.126Z,96251.06
2022-11-10T07:28:17.475Z,96269.75
2022-11-10T07:30:46.913Z,96282.97
2022-11-10T07:33:16.419Z,96283.75
2022-11-10T07:35:45.795Z,96250.91
2022-11-10T07:38:15.723Z,96288.53
2022-11-10T07:40:44.203Z,96210.72
2022-11-10T07:43:13.952Z,96279.16
2022-11-10T07:45:42.919Z,96302.03
2022-11-10T07:48:11.383Z,96300.03
2022-11-10T07:50:40.205Z,96309.06
2022-11-10T07:53:11.193Z,96295.28
2022-11-10T07:55:41.022Z,96304.91
2022-11-10T07:58:10.470Z,96305.84
2022-11-10T08:00:40.498Z,96294.78
2022-11-10T08:03:12.276Z,96296.03
2022-11-10T08:05:41.737Z,96209.47
2022-11-10T08:08:11.086Z,96300.28
2022-11-10T08:10:41.344Z,96324.50
2022-11-10T08:13:11.729Z,96327.66
2022-11-10T08:15:42.763Z,96335.19
2022-11-10T08:18:17.873Z,96316.63
2022-11-10T08:20:46.650Z,96348.69
2022-11-10T08:23:15.969Z,96338.28
2022-11-10T08:25:44.994Z,96340.72
2022-11-10T08:28:15.947Z,96362.63
2022-11-10T08:30:48.071Z,96333.88
2022-11-10T08:33:19.516Z,96365.31
2022-11-10T08:35:49.963Z,96356.88
2022-11-10T08:38:20.563Z,96387.47
2022-11-10T08:40:50.141Z,96380.31
2022-11-10T08:43:20.047Z,96388.59
2022-11-10T08:45:50.768Z,96409.63
2022-11-10T08:48:21.561Z,96403.59
2022-11-10T08:50:50.721Z,96420.84
2022-11-10T08:53:21.548Z,96422.16
2022-11-10T08:55:51.383Z,96428.34
2022-11-10T08:58:21.948Z,96423.53
2022-11-10T09:00:52.596Z,96421.34
2022-11-10T09:03:23.382Z,96432.06
2022-11-10T09:05:58.042Z,96371.03
2022-11-10T09:08:27.444Z,96417.75
2022-11-10T09:10:55.838Z,96448.22
2022-11-10T09:13:29.384Z,96434.34
2022-11-10T09:16:02.322Z,96432.19
2022-11-10T09:18:31.048Z,96454.56
2022-11-10T09:20:59.504Z,96475.66
2022-11-10T09:23:28.301Z,96381.75
2022-11-10T09:25:57.873Z,96450.97
2022-11-10T09:28:26.880Z,96478.47
2022-11-10T09:30:55.310Z,96478.91
2022-11-10T09:33:25.424Z,96495.97
2022-11-10T09:35:58.961Z,96470.97
2022-11-10T09:38:27.518Z,96464.22
2022-11-10T09:41:03.081Z,96411.41
2022-11-10T09:43:39.063Z,96487.75
2022-11-10T09:46:15.020Z,96474.09
2022-11-10T09:48:50.604Z,96493.69
2022-11-10T09:51:23.698Z,96483.53
2022-11-10T09:53:57.165Z,96491.69
2022-11-10T09:56:32.375Z,96498.25
2022-11-10T09:59:02.076Z,96453.81
2022-11-10T10:01:37.847Z,96494.63
2022-11-10T10:04:22.728Z,96493.81
2022-11-10T10:07:10.818Z,96440.25
2022-11-10T10:09:48.840Z,96493.38
2022-11-10T10:12:27.426Z,96445.38
2022-11-10T10:15:13.721Z,96501.66
2022-11-10T10:17:52.710Z,96381.78
2022-11-10T10:20:29.595Z,96470.13
2022-11-10T10:23:10.480Z,96486.44
2022-11-10T10:25:40.881Z,96511.34
2022-11-10T10:28:21.430Z,96507.97
2022-11-10T10:30:50.878Z,96475.91
2022-11-10T10:33:20.883Z,96448.66
2022-11-10T10:35:51.825Z,96495.38
2022-11-10T10:38:25.563Z,96491.06
2022-11-10T10:40:58.782Z,96510.22
2022-11-10T10:43:27.294Z,96504.38
2022-11-10T10:46:15.976Z,96502.22
2022-11-10T10:48:47.736Z,96517.34
2022-11-10T10:51:32.317Z,96525.41
2022-11-10T10:54:00.707Z,96522.59
2022-11-10T10:56:34.355Z,96532.91
2022-11-10T10:59:06.291Z,96542.34
2022-11-10T11:01:36.069Z,96543.00
2022-11-10T11:04:26.767Z,96534.06
2022-11-10T11:07:00.545Z,96458.59
2022-11-10T11:09:31.338Z,96535.69
2022-11-10T11:12:06.748Z,96496.97
2022-11-10T11:14:35.390Z,96526.63
2022-11-10T11:17:13.358Z,96521.22
2022-11-10T11:19:42.465Z,96513.44
2022-11-10T11:22:48.134Z,96524.16
2022-11-10T11:25:25.486Z,96522.34
2022-11-10T11:28:03.889Z,96532.59
2022-11-10T11:30:45.650Z,96420.31
2022-11-10T11:33:34.137Z,96532.91
2022-11-10T11:36:13.052Z,96532.59
2022-11-10T11:38:53.759Z,96475.66
2022-11-10T11:41:34.505Z,96533.34
2022-11-10T11:44:17.697Z,96521.81
2022-11-10T11:46:54.475Z,96549.31
2022-11-10T11:49:43.259Z,96543.81
2022-11-10T11:52:23.442Z,96499.50
2022-11-10T11:55:15.324Z,96535.53
2022-11-10T11:57:55.398Z,96554.09
2022-11-10T12:00:24.862Z,96560.00
2022-11-10T12:03:26.629Z,96547.56
2022-11-10T12:06:08.555Z,96572.16
2022-11-10T12:08:47.173Z,96564.38
2022-11-10T12:11:22.929Z,96568.72
2022-11-10T12:14:01.996Z,96549.22
2022-11-10T12:16:31.912Z,96559.00
2022-11-10T12:19:14.764Z,96557.28
2022-11-10T12:21:50.501Z,96562.78
2022-11-10T12:24:38.122Z,96563.00
2022-11-10T12:27:15.206Z,96558.75
2022-11-10T12:29:49.023Z,96565.22
2022-11-10T12:32:23.690Z,96544.47
2022-11-10T12:34:56.944Z,96554.56
2022-11-10T12:37:34.833Z,96545.09
2022-11-10T12:40:07.554Z,96506.19
2022-11-10T12:42:39.262Z,96543.28
2022-11-10T12:45:17.886Z,96558.63
2022-11-10T12:47:49.491Z,96557.63
2022-11-10T12:50:30.605Z,96555.47
2022-11-10T12:53:03.285Z,96559.38
2022-11-10T12:55:37.840Z,96536.66
2022-11-10T12:58:08.841Z,96532.59
2022-11-10T13:00:43.523Z,96562.41
2022-11-10T13:03:17.086Z,96565.63
2022-11-10T13:05:46.609Z,96559.53
2022-11-10T13:08:27.507Z,96584.75
2022-11-10T13:10:58.812Z,96586.94
2022-11-10T13:13:29.431Z,96601.09
2022-11-10T13:15:59.034Z,96607.25
2022-11-10T13:18:54.612Z,96608.25
2022-11-10T13:21:56.057Z,96583.59
2022-11-10T13:24:26.460Z,96619.00
2022-11-10T13:26:56.241Z,96614.66
2022-11-10T13:29:36.441Z,96610.22
2022-11-10T13:32:28.866Z,96606.72
2022-11-10T13:35:51.168Z,96609.41
2022-11-10T13:38:37.309Z,96611.06
2022-11-10T13:41:24.892Z,96606.16
2022-11-10T13:43:54.934Z,96609.03
2022-11-10T13:46:35.243Z,96582.16
2022-11-10T13:49:32.546Z,96613.97
2022-11-10T13:52:12.375Z,96617.28
2022-11-10T13:55:16.401Z,96616.59
2022-11-10T13:58:01.318Z,96613.44
2022-11-10T14:00:32.540Z,96542.44
2022-11-10T14:03:03.368Z,96610.31
2022-11-10T14:06:04.742Z,96634.63
2022-11-10T14:08:42.094Z,96638.97
2022-11-10T14:11:22.518Z,96636.28
2022-11-10T14:13:56.977Z,96625.50
2022-11-10T14:16:27.861Z,96634.41
2022-11-10T14:19:03.314Z,96633.53
2022-11-10T14:21:39.824Z,96611.44
2022-11-10T14:24:20.477Z,96627.69
2022-11-10T14:26:53.274Z,96618.16
2022-11-10T14:29:33.564Z,96615.28
2022-11-10T14:32:04.654Z,96613.31
2022-11-10T14:34:44.589Z,96624.59
2022-11-10T14:37:19.114Z,96616.97
2022-11-10T14:39:48.901Z,96628.22
2022-11-10T14:42:23.692Z,96628.09
2022-11-10T14:45:06.714Z,96631.22
2022-11-10T14:47:36.030Z,96623.69
2022-11-10T14:50:18.382Z,96619.31
2022-11-10T14:52:49.838Z,96634.16
2022-11-10T14:55:22.171Z,96641.84
2022-11-10T14:58:00.481Z,96633.19
2022-11-10T15:00:29.477Z,96480.06
2022-11-10T15:02:59.699Z,96629.44
2022-11-10T15:05:32.510Z,96627.97
2022-11-10T15:08:02.949Z,96646.91
2022-11-10T15:10:45.224Z,96656.00
2022-11-10T15:13:37.761Z,96639.91
2022-11-10T15:16:25.651Z,96654.28
2022-11-10T15:18:55.855Z,96653.34
2022-11-10T15:21:34.165Z,96657.34
2022-11-10T15:24:08.300Z,96641.66
2022-11-10T15:26:40.859Z,96662.16
2022-11-10T15:29:20.404Z,96662.09
2022-11-10T15:31:49.134Z,96628.19
2022-11-10T15:34:42.824Z,96666.50
2022-11-10T15:37:26.039Z,96674.78
2022-11-10T15:40:31.495Z,96675.09
2022-11-10T15:43:16.530Z,96684.38
2022-11-10T15:45:48.493Z,96686.78
2022-11-10T15:48:19.875Z,96680.28
2022-11-10T15:50:51.046Z,96672.47
2022-11-10T15:53:26.040Z,96690.38
2022-11-10T15:55:54.622Z,96693.53
2022-11-10T15:58:25.383Z,96697.06
2022-11-10T16:00:53.880Z,96690.28
2022-11-10T16:03:24.883Z,96689.25
2022-11-10T16:05:53.254Z,96700.63
2022-11-10T16:08:24.570Z,96671.75
2022-11-10T16:10:55.726Z,96477.38
2022-11-10T16:13:27.847Z,96711.28
2022-11-10T16:15:57.533Z,96715.38
2022-11-10T16:18:28.935Z,96653.06
2022-11-10T16:20:57.466Z,96712.25
2022-11-10T16:23:27.258Z,96712.81
2022-11-10T16:25:57.816Z,96722.44
2022-11-10T16:28:28.875Z,96724.53
2022-11-10T16:30:57.343Z,96698.41
2022-11-10T16:33:28.056Z,96725.59
2022-11-10T16:35:57.983Z,96699.34
2022-11-10T16:38:30.561Z,96740.66
2022-11-10T16:41:00.699Z,96729.97
2022-11-10T16:43:30.568Z,96739.09
2022-11-10T16:46:03.673Z,96721.75
2022-11-10T16:48:34.651Z,96707.63
2022-11-10T16:51:03.897Z,96756.19
2022-11-10T16:53:33.778Z,96760.66
2022-11-10T16:56:02.098Z,96760.78
2022-11-10T16:58:30.374Z,96750.94
2022-11-10T17:01:01.383Z,96761.56
2022-11-10T17:03:33.345Z,96765.69
2022-11-10T17:06:01.891Z,96771.19
2022-11-10T17:08:33.142Z,96784.31
2022-11-10T17:11:03.013Z,96788.03
2022-11-10T17:13:31.294Z,96783.34
2022-11-10T17:16:07.237Z,96780.09
2022-11-10T17:18:37.505Z,96765.38
2022-11-10T17:21:08.983Z,96705.13
2022-11-10T17:23:39.333Z,96757.78
2022-11-10T17:26:10.553Z,96781.75
2022-11-10T17:28:39.378Z,96777.69
2022-11-10T17:31:07.726Z,96777.53
2022-11-10T17:33:36.119Z,96709.94
2022-11-10T17:36:05.630Z,96772.88
2022-11-10T17:38:34.855Z,96768.66
2022-11-10T17:41:04.670Z,96794.75
2022-11-10T17:43:34.577Z,96794.97
2022-11-10T17:46:03.270Z,96792.28
2022-11-10T17:48:31.594Z,96786.31
2022-11-10T17:51:01.025Z,96777.44
2022-11-10T17:53:29.742Z,96739.25
2022-11-10T17:55:58.414Z,96781.78
2022-11-10T17:58:27.602Z,96770.56
2022-11-10T18:00:58.322Z,96778.25
2022-11-10T18:03:26.987Z,96792.63
2022-11-10T18:05:55.906Z,96795.88
2022-11-10T18:08:24.851Z,96766.59
2022-11-10T18:10:54.425Z,96799.97
2022-11-10T18:13:23.437Z,96798.09
2022-11-10T18:15:54.521Z,96801.03
2022-11-10T18:18:24.533Z,96808.03
2022-11-10T18:20:53.481Z,96806.16
2022-11-10T18:23:22.309Z,96801.03
2022-11-10T18:25:51.398Z,96799.19
2022-11-10T18:28:20.081Z,96760.13
2022-11-10T18:30:48.539Z,96801.03
2022-11-10T18:33:17.003Z,96805.59
2022-11-10T18:35:47.787Z,96801.88
2022-11-10T18:38:16.473Z,96709.06
2022-11-10T18:40:44.988Z,96709.06
2022-11-10T18:43:13.539Z,96720.63
2022-11-10T18:45:42.094Z,96648.81
2022-11-10T18:48:10.516Z,96785.38
2022-11-10T18:50:39.559Z,96710.13
2022-11-10T18:53:09.394Z,96775.69
2022-11-10T18:55:40.552Z,96785.38
2022-11-10T18:58:12.894Z,96792.38
2022-11-10T19:00:41.494Z,96696.34
2022-11-10T19:03:09.961Z,96807.47
2022-11-10T19:05:39.726Z,96768.81
2022-11-10T19:08:11.003Z,96803.84
2022-11-10T19:10:44.407Z,96797.75
2022-11-10T19:13:13.985Z,96805.72
2022-11-10T19:15:42.451Z,96811.31
2022-11-10T19:18:11.037Z,96805.97
2022-11-10T19:20:42.252Z,96802.09
2022-11-10T19:23:13.438Z,96799.88
2022-11-10T19:25:42.747Z,96788.91
2022-11-10T19:28:12.585Z,96818.56
2022-11-10T19:30:41.576Z,96800.44
2022-11-10T19:33:10.611Z,96818.09
2022-11-10T19:35:42.630Z,96808.28
2022-11-10T19:38:13.202Z,96804.88
2022-11-10T19:40:43.122Z,96802.34
2022-11-10T19:43:12.073Z,96803.13
2022-11-10T19:45:41.507Z,96802.81
2022-11-10T19:48:10.207Z,96795.44
2022-11-10T19:50:39.067Z,96805.25
2022-11-10T19:53:08.073Z,96783.16
2022-11-10T19:55:38.086Z,96806.06
2022-11-10T19:58:06.643Z,96815.78
2022-11-10T20:00:35.138Z,96817.28
2022-11-10T20:03:05.097Z,96817.16
2022-11-10T20:05:36.212Z,96798.34
2022-11-10T20:08:13.173Z,96831.28
2022-11-10T20:10:45.165Z,96815.25
2022-11-10T20:13:14.642Z,96825.78
2022-11-10T20:15:45.358Z,96810.25
2022-11-10T20:18:14.597Z,96822.38
2022-11-10T20:20:44.895Z,96796.28
2022-11-10T20:23:16.227Z,96807.97
2022-11-10T20:25:46.749Z,96798.03
2022-11-10T20:28:15.452Z,96801.53
2022-11-10T20:30:46.123Z,96806.81
2022-11-10T20:33:14.535Z,96838.69
2022-11-10T20:35:44.111Z,96830.63
2022-11-10T20:38:13.604Z,96837.88
2022-11-10T20:40:44.871Z,96830.63
2022-11-10T20:43:15.391Z,96828.28
2022-11-10T20:45:44.210Z,96846.03
2022-11-10T20:48:12.643Z,96857.22
2022-11-10T20:50:42.338Z,96857.97
2022-11-10T20:53:10.689Z,96859.78
2022-11-10T20:55:55.158Z,96813.84
2022-11-10T20:58:25.022Z,96789.56
2022-11-10T21:00:53.808Z,96863.59
2022-11-10T21:03:23.205Z,96875.16
2022-11-10T21:05:55.808Z,96865.25
2022-11-10T21:08:24.425Z,96886.91
2022-11-10T21:10:53.298Z,96872.13
2022-11-10T21:13:21.848Z,96866.16
2022-11-10T21:15:54.162Z,96870.50
2022-11-10T21:18:22.975Z,96854.13
2022-11-10T21:20:51.580Z,96850.50
2022-11-10T21:23:20.120Z,96813.03
2022-11-10T21:25:54.232Z,96843.41
2022-11-10T21:28:23.051Z,96844.22
2022-11-10T21:30:54.091Z,96838.41
2022-11-10T21:33:23.096Z,96837.56
2022-11-10T21:35:51.565Z,96843.75
2022-11-10T21:38:19.975Z,96794.56
2022-11-10T21:40:48.303Z,96815.13
2022-11-10T21:43:16.691Z,96790.22
2022-11-10T21:45:45.164Z,96855.34
2022-11-10T21:48:15.375Z,96854.50
2022-11-10T21:50:44.116Z,96859.44
2022-11-10T21:53:12.538Z,96864.59
2022-11-10T21:55:41.566Z,96860.63
2022-11-10T21:58:09.970Z,96856.53
2022-11-10T22:00:38.375Z,96856.97
2022-11-10T22:03:07.027Z,96791.28
2022-11-10T22:05:36.842Z,96852.19
2022-11-10T22:08:05.943Z,96852.75
2022-11-10T22:10:51.474Z,96826.97
2022-11-10T22:13:37.871Z,96842.50
2022-11-10T22:16:39.637Z,96785.19
2022-11-10T22:19:09.850Z,96854.03
2022-11-10T22:21:40.004Z,96836.25
2022-11-10T22:24:27.917Z,96850.09
2022-11-10T22:26:57.389Z,96856.16
2022-11-10T22:29:31.419Z,96843.16
2022-11-10T22:32:01.491Z,96848.06
2022-11-10T22:34:30.227Z,96859.66
2022-11-10T22:37:00.555Z,96861.97
2022-11-10T22:39:48.874Z,96863.00
2022-11-10T22:42:34.362Z,96827.66
2022-11-10T22:45:02.816Z,96844.06
2022-11-10T22:47:51.232Z,96871.81
2022-11-10T22:50:19.945Z,96811.81
2022-11-10T22:52:49.696Z,96863.50
2022-11-10T22:55:18.379Z,96869.50
2022-11-10T22:57:46.780Z,96859.59
2022-11-10T23:00:16.899Z,96848.88
2022-11-10T23:02:45.543Z,96855.84
2022-11-10T23:05:13.912Z,96830.38
2022-11-10T23:07:42.373Z,96835.69
2022-11-10T23:10:13.041Z,96835.94
2022-11-10T23:12:41.710Z,96834.31
2022-11-10T23:15:10.882Z,96835.81
2022-11-10T23:17:39.778Z,96795.25
2022-11-10T23:20:09.134Z,96799.34
2022-11-10T23:22:37.485Z,96815.63
2022-11-10T23:25:07.306Z,96829.41
2022-11-10T23:27:37.954Z,96836.88
2022-11-10T23:30:07.476Z,96834.19
2022-11-10T23:32:36.169Z,96823.63
2022-11-10T23:35:05.171Z,96829.28
2022-11-10T23:37:34.049Z,96805.63
2022-11-10T23:40:02.758Z,96836.59
2022-11-10T23:42:33.129Z,96833.00
2022-11-10T23:45:03.079Z,96838.84
2022-11-10T23:47:32.052Z,96804.03
2022-11-10T23:50:00.345Z,96858.53
2022-11-10T23:52:28.836Z,96866.47
2022-11-10T23:54:57.214Z,96882.00
2022-11-10T23:57:25.588Z,96876.63
2022-11-10T23:59:53.857Z,96789.72
